createdAt,value
2023-04-20T00:02:51.358Z,6.47
2023-04-20T00:06:53.337Z,6.77
2023-04-20T00:10:54.719Z,7.10
2023-04-20T00:14:55.842Z,7.23
2023-04-20T00:18:58.897Z,6.43
2023-04-20T00:23:00.479Z,7.40
2023-04-20T00:27:01.766Z,6.97
2023-04-20T00:31:03.151Z,7.00
2023-04-20T00:35:04.751Z,6.17
2023-04-20T00:39:05.745Z,6.70
2023-04-20T00:43:13.884Z,8.03
2023-04-20T00:47:14.835Z,7.83
2023-04-20T00:51:16.031Z,7.40
2023-04-20T00:55:17.603Z,7.13
2023-04-20T00:59:18.784Z,8.17
2023-04-20T01:03:20.236Z,7.60
2023-04-20T01:07:21.287Z,8.33
2023-04-20T01:11:22.378Z,7.27
2023-04-20T01:15:24.047Z,7.00
2023-04-20T01:19:26.120Z,7.33
2023-04-20T01:23:27.048Z,7.90
2023-04-20T01:27:28.141Z,7.73
2023-04-20T01:31:29.133Z,7.07
2023-04-20T01:35:30.045Z,7.37
2023-04-20T01:39:31.313Z,7.97
2023-04-20T01:43:33.421Z,7.03
2023-04-20T01:47:34.690Z,7.97
2023-04-20T01:51:36.650Z,8.10
2023-04-20T01:55:38.430Z,7.73
2023-04-20T01:59:39.466Z,7.20
2023-04-20T02:03:40.942Z,8.33
2023-04-20T02:07:42.330Z,7.50
2023-04-20T02:11:43.562Z,7.40
2023-04-20T02:15:44.633Z,8.37
2023-04-20T02:19:46.312Z,9.13
2023-04-20T02:23:47.616Z,10.50
2023-04-20T02:27:49.102Z,9.67
2023-04-20T02:31:50.105Z,11.43
2023-04-20T02:35:51.274Z,10.60
2023-04-20T02:39:52.332Z,10.70
2023-04-20T02:43:53.435Z,11.37
2023-04-20T02:47:54.405Z,12.83
2023-04-20T02:51:55.410Z,10.77
2023-04-20T02:55:56.525Z,9.50
2023-04-20T02:59:57.687Z,10.63
2023-04-20T03:03:59.074Z,10.23
2023-04-20T03:08:00.338Z,11.33
2023-04-20T03:12:02.300Z,12.20
2023-04-20T03:16:05.355Z,12.90
2023-04-20T03:20:08.433Z,13.97
2023-04-20T03:24:09.517Z,13.80
2023-04-20T03:28:10.633Z,15.40
2023-04-20T03:32:11.697Z,14.43
2023-04-20T03:36:12.822Z,14.40
2023-04-20T03:40:13.907Z,14.30
2023-04-20T03:44:15.089Z,14.90
2023-04-20T03:48:16.051Z,14.70
2023-04-20T03:52:17.170Z,16.30
2023-04-20T03:56:18.334Z,16.50
2023-04-20T04:00:19.460Z,15.90
2023-04-20T04:04:20.639Z,18.07
2023-04-20T04:08:21.724Z,16.07
2023-04-20T04:12:23.415Z,15.20
2023-04-20T04:16:25.045Z,15.50
2023-04-20T04:20:26.218Z,16.93
2023-04-20T04:24:27.692Z,16.03
2023-04-20T04:28:28.715Z,16.93
2023-04-20T04:32:30.035Z,15.27
2023-04-20T04:36:31.685Z,16.23
2023-04-20T04:40:33.193Z,17.43
2023-04-20T04:44:34.176Z,17.70
2023-04-20T04:48:36.589Z,19.17
2023-04-20T04:52:37.826Z,17.47
2023-04-20T04:56:38.778Z,18.37
2023-04-20T05:00:39.975Z,18.03
2023-04-20T05:04:41.251Z,18.70
2023-04-20T05:08:42.697Z,19.70
2023-04-20T05:12:44.206Z,19.83
2023-04-20T05:16:45.396Z,18.60
2023-04-20T05:20:46.478Z,19.07
2023-04-20T05:24:47.700Z,18.80
2023-04-20T05:28:48.824Z,18.43
2023-04-20T05:32:52.210Z,21.30
2023-04-20T05:36:54.262Z,19.40
2023-04-20T05:40:56.010Z,21.10
2023-04-20T05:44:57.005Z,21.67
2023-04-20T05:48:58.476Z,22.20
2023-04-20T05:52:59.906Z,23.53
2023-04-20T05:57:01.373Z,22.27
2023-04-20T06:01:03.633Z,22.03
2023-04-20T06:05:05.785Z,22.07
2023-04-20T06:09:07.142Z,21.57
2023-04-20T06:13:08.266Z,21.00
2023-04-20T06:17:09.397Z,20.40
2023-04-20T06:21:11.033Z,20.43
2023-04-20T06:25:13.535Z,18.90
2023-04-20T06:29:14.588Z,17.47
2023-04-20T06:33:16.786Z,20.10
2023-04-20T06:37:18.970Z,17.77
2023-04-20T06:41:20.511Z,17.47
2023-04-20T06:45:21.968Z,19.33
2023-04-20T06:49:22.926Z,17.03
2023-04-20T06:53:23.948Z,16.13
2023-04-20T06:57:24.927Z,16.67
2023-04-20T07:01:26.092Z,15.83
2023-04-20T07:05:28.252Z,15.37
2023-04-20T07:09:29.226Z,15.87
2023-04-20T07:13:33.425Z,14.10
2023-04-20T07:17:34.732Z,13.50
2023-04-20T07:21:36.145Z,14.07
2023-04-20T07:25:37.057Z,13.40
2023-04-20T07:29:38.051Z,12.83
2023-04-20T07:33:39.155Z,12.97
2023-04-20T07:37:40.680Z,12.67
2023-04-20T07:41:41.791Z,12.23
2023-04-20T07:45:42.872Z,12.70
2023-04-20T07:49:43.952Z,12.00
2023-04-20T07:53:45.351Z,11.97
2023-04-20T07:57:46.475Z,13.97
2023-04-20T08:01:47.753Z,12.93
2023-04-20T08:05:48.985Z,14.27
2023-04-20T08:09:50.151Z,14.17
2023-04-20T08:13:51.158Z,13.33
2023-04-20T08:17:52.451Z,12.67
2023-04-20T08:21:54.021Z,14.53
2023-04-20T08:25:55.507Z,14.57
2023-04-20T08:29:56.554Z,15.37
2023-04-20T08:33:57.857Z,15.63
2023-04-20T08:37:58.977Z,14.07
2023-04-20T08:42:01.434Z,14.80
2023-04-20T08:46:02.364Z,12.67
2023-04-20T08:50:04.369Z,13.17
2023-04-20T08:54:05.902Z,13.07
2023-04-20T08:58:07.184Z,11.30
2023-04-20T09:02:12.950Z,11.67
2023-04-20T09:06:16.320Z,11.53
2023-04-20T09:10:17.256Z,12.20
2023-04-20T09:14:20.342Z,11.33
2023-04-20T09:18:23.849Z,11.37
2023-04-20T09:22:33.357Z,11.13
2023-04-20T09:26:35.796Z,11.23
2023-04-20T09:30:39.567Z,12.43
2023-04-20T09:34:44.373Z,11.53
2023-04-20T09:38:45.450Z,11.50
2023-04-20T09:42:48.487Z,11.47
2023-04-20T09:46:50.168Z,11.47
2023-04-20T09:50:52.099Z,13.00
2023-04-20T09:54:54.121Z,11.00
2023-04-20T09:58:56.349Z,11.10
2023-04-20T10:02:57.538Z,11.20
2023-04-20T10:07:00.530Z,12.60
2023-04-20T10:11:01.391Z,10.00
2023-04-20T10:15:03.924Z,12.83
2023-04-20T10:19:06.401Z,12.07
2023-04-20T10:23:10.855Z,12.27
2023-04-20T10:27:19.759Z,13.10
2023-04-20T10:31:21.466Z,12.30
2023-04-20T10:35:22.349Z,13.03
2023-04-20T10:39:25.444Z,11.83
2023-04-20T10:43:26.396Z,12.23
2023-04-20T10:47:29.552Z,13.30
2023-04-20T10:51:30.990Z,11.80
2023-04-20T10:55:33.926Z,11.27
2023-04-20T10:59:36.831Z,11.07
2023-04-20T11:03:38.060Z,12.50
2023-04-20T11:08:00.455Z,11.97
2023-04-20T11:12:06.548Z,12.90
2023-04-20T11:16:15.989Z,12.17
2023-04-20T11:20:17.911Z,12.13
2023-04-20T11:24:23.546Z,11.80
2023-04-20T11:28:26.610Z,11.73
2023-04-20T11:32:27.712Z,9.70
2023-04-20T11:36:30.309Z,12.20
2023-04-20T11:40:31.492Z,16.07
2023-04-20T11:44:33.303Z,17.60
2023-04-20T11:48:34.429Z,16.37
2023-04-20T11:52:35.459Z,13.87
2023-04-20T11:56:37.779Z,14.40
2023-04-20T12:00:38.784Z,13.40
2023-04-20T12:04:40.000Z,13.40
2023-04-20T12:08:42.612Z,12.77
2023-04-20T12:12:43.584Z,10.70
2023-04-20T12:16:45.506Z,10.80
2023-04-20T12:20:46.614Z,10.67
2023-04-20T12:24:47.857Z,11.00
2023-04-20T12:28:48.933Z,9.57
2023-04-20T12:32:50.175Z,9.13
2023-04-20T12:36:51.519Z,9.83
2023-04-20T12:40:52.493Z,8.67
2023-04-20T12:44:53.864Z,7.37
2023-04-20T12:48:55.719Z,8.43
2023-04-20T12:52:57.809Z,9.23
2023-04-20T12:56:59.029Z,7.90
2023-04-20T13:01:00.169Z,7.93
2023-04-20T13:05:01.240Z,9.17
2023-04-20T13:09:03.407Z,8.47
2023-04-20T13:13:04.831Z,8.27
2023-04-20T13:17:06.470Z,7.27
2023-04-20T13:21:07.745Z,8.27
2023-04-20T13:25:09.324Z,8.10
2023-04-20T13:29:10.506Z,8.17
2023-04-20T13:33:11.685Z,6.87
2023-04-20T13:37:12.975Z,9.00
2023-04-20T13:41:17.736Z,10.57
2023-04-20T13:45:18.926Z,9.43
2023-04-20T13:49:22.126Z,9.33
2023-04-20T13:53:23.144Z,7.57
2023-04-20T13:57:24.133Z,7.30
2023-04-20T14:01:25.382Z,7.03
2023-04-20T14:05:26.338Z,7.00
2023-04-20T14:09:28.072Z,8.00
2023-04-20T14:13:29.093Z,7.73
2023-04-20T14:17:30.440Z,8.67
2023-04-20T14:21:32.222Z,8.93
2023-04-20T14:25:33.199Z,9.70
2023-04-20T14:29:37.242Z,9.47
2023-04-20T14:33:38.619Z,9.97
2023-04-20T14:37:42.614Z,11.37
2023-04-20T14:41:43.720Z,11.13
2023-04-20T14:45:45.416Z,10.77
2023-04-20T14:49:46.544Z,10.73
2023-04-20T14:53:47.711Z,10.90
2023-04-20T14:57:50.267Z,11.77
2023-04-20T15:02:01.854Z,11.30
2023-04-20T15:06:00.775Z,11.87
2023-04-20T15:10:02.204Z,12.63
2023-04-20T15:14:03.341Z,14.03
2023-04-20T15:18:04.551Z,13.83
2023-04-20T15:22:05.704Z,15.10
2023-04-20T15:26:08.489Z,14.13
2023-04-20T15:30:10.181Z,15.13
2023-04-20T15:34:13.195Z,15.73
2023-04-20T15:38:14.232Z,15.63
2023-04-20T15:42:15.213Z,17.97
2023-04-20T15:46:16.275Z,16.77
2023-04-20T15:50:17.329Z,15.50
2023-04-20T15:54:20.510Z,16.17
2023-04-20T15:58:21.808Z,15.27
2023-04-20T16:02:23.209Z,14.77
2023-04-20T16:06:24.401Z,16.67
2023-04-20T16:10:26.689Z,15.80
2023-04-20T16:14:28.476Z,14.97
2023-04-20T16:18:31.486Z,17.50
2023-04-20T16:22:32.607Z,16.47
2023-04-20T16:26:33.535Z,15.93
2023-04-20T16:30:36.327Z,18.47
2023-04-20T16:34:37.429Z,17.33
2023-04-20T16:38:38.535Z,19.17
2023-04-20T16:42:39.647Z,19.37
2023-04-20T16:46:41.270Z,19.83
2023-04-20T16:50:42.468Z,19.43
2023-04-20T16:54:43.524Z,20.13
2023-04-20T16:58:44.605Z,19.93
2023-04-20T17:02:46.061Z,21.60
2023-04-20T17:06:47.286Z,21.93
2023-04-20T17:10:48.383Z,21.70
2023-04-20T17:14:49.308Z,22.90
2023-04-20T17:18:51.806Z,23.47
2023-04-20T17:22:52.751Z,26.47
2023-04-20T17:26:53.767Z,27.03
2023-04-20T17:30:54.867Z,29.30
2023-04-20T17:34:57.034Z,31.03
2023-04-20T17:38:57.971Z,32.63
2023-04-20T17:42:59.004Z,31.80
2023-04-20T17:47:00.775Z,33.87
2023-04-20T17:51:01.733Z,35.80
2023-04-20T17:55:03.250Z,36.07
2023-04-20T17:59:05.005Z,39.60
2023-04-20T18:03:06.298Z,39.77
2023-04-20T18:07:07.616Z,40.07
2023-04-20T18:11:08.747Z,43.20
2023-04-20T18:15:10.876Z,43.93
2023-04-20T18:19:12.172Z,45.13
2023-04-20T18:23:13.133Z,44.50
2023-04-20T18:27:14.126Z,52.75
2023-04-20T18:31:15.266Z,49.37
2023-04-20T18:35:16.158Z,43.50
2023-04-20T18:39:17.272Z,44.73
2023-04-20T18:43:18.372Z,42.50
2023-04-20T18:47:21.600Z,43.60
2023-04-20T18:51:23.286Z,49.07
2023-04-20T18:55:27.041Z,55.17
2023-04-20T18:59:28.266Z,54.73
2023-04-20T19:03:29.735Z,58.57
2023-04-20T19:07:30.929Z,64.60
2023-04-20T19:11:32.171Z,59.20
2023-04-20T19:15:33.378Z,61.00
2023-04-20T19:19:34.752Z,62.63
2023-04-20T19:23:35.792Z,64.93
2023-04-20T19:27:36.890Z,64.07
2023-04-20T19:31:39.560Z,64.90
2023-04-20T19:35:41.484Z,67.87
2023-04-20T19:39:42.588Z,67.63
2023-04-20T19:43:43.550Z,75.60
2023-04-20T19:47:44.754Z,72.83
2023-04-20T19:51:46.235Z,84.40
2023-04-20T19:55:47.193Z,95.00
2023-04-20T19:59:48.293Z,84.87
2023-04-20T20:03:49.709Z,81.60
2023-04-20T20:07:51.483Z,92.57
2023-04-20T20:11:54.605Z,94.50
2023-04-20T20:15:55.876Z,126.50
2023-04-20T20:19:57.446Z,107.00
2023-04-20T20:23:58.574Z,105.77
2023-04-20T20:27:59.980Z,82.97
2023-04-20T20:32:01.376Z,102.10
2023-04-20T20:36:03.756Z,126.37
2023-04-20T20:40:14.143Z,109.67
2023-04-20T20:44:15.188Z,133.43
2023-04-20T20:48:16.193Z,126.37
2023-04-20T20:52:17.304Z,91.23
2023-04-20T20:56:18.427Z,105.47
2023-04-20T21:00:19.699Z,146.73
2023-04-20T21:04:20.903Z,161.43
2023-04-20T21:08:22.091Z,209.87
2023-04-20T21:12:23.242Z,112.00
2023-04-20T21:16:24.349Z,104.33
2023-04-20T21:20:25.542Z,99.10
2023-04-20T21:24:26.418Z,101.03
2023-04-20T21:28:27.520Z,154.43
2023-04-20T21:36:32.588Z,111.53
2023-04-20T21:40:33.704Z,113.10
2023-04-20T21:44:34.830Z,103.33
2023-04-20T21:48:35.770Z,149.57
2023-04-20T21:52:36.768Z,97.73
2023-04-20T21:56:37.888Z,112.50
2023-04-20T22:00:39.020Z,141.23
2023-04-20T22:04:40.464Z,134.73
2023-04-20T22:08:41.595Z,142.87
2023-04-20T22:12:42.673Z,103.77
2023-04-20T22:16:43.744Z,105.23
2023-04-20T22:20:44.926Z,92.97
2023-04-20T22:24:46.055Z,112.87
2023-04-20T22:28:46.985Z,115.93
2023-04-20T22:32:48.249Z,146.80
2023-04-20T22:36:49.404Z,127.40
2023-04-20T22:40:50.355Z,120.37
2023-04-20T22:44:51.312Z,116.70
2023-04-20T22:52:56.823Z,121.13
2023-04-20T22:56:58.106Z,111.47
2023-04-20T23:00:59.316Z,100.07
2023-04-20T23:05:00.873Z,133.63
2023-04-20T23:09:04.277Z,99.23
2023-04-20T23:13:05.212Z,117.10
2023-04-20T23:17:06.676Z,139.47
2023-04-20T23:21:07.662Z,116.83
2023-04-20T23:25:10.337Z,97.17
2023-04-20T23:29:11.298Z,146.43
2023-04-20T23:33:12.284Z,152.77
2023-04-20T23:37:13.207Z,150.67
2023-04-20T23:41:14.927Z,134.23
2023-04-20T23:45:15.906Z,128.00
2023-04-20T23:49:16.952Z,124.70
2023-04-20T23:53:18.022Z,104.87
2023-04-20T23:57:19.178Z,125.63
